sensor_id;sensor_type;location;lat;lon;timestamp;temperature;humidity
16064;DHT22;8136;53.172;8.256;2023-04-24T00:01:21;13.00;99.90
16064;DHT22;8136;53.172;8.256;2023-04-24T00:03:48;12.90;99.90
16064;DHT22;8136;53.172;8.256;2023-04-24T00:06:15;12.90;99.90
16064;DHT22;8136;53.172;8.256;2023-04-24T00:08:43;12.80;99.90
16064;DHT22;8136;53.172;8.256;2023-04-24T00:11:10;12.80;99.90
16064;DHT22;8136;53.172;8.256;2023-04-24T00:13:38;12.70;99.90
16064;DHT22;8136;53.172;8.256;2023-04-24T00:16:06;12.70;99.90
16064;DHT22;8136;53.172;8.256;2023-04-24T00:18:33;12.70;99.90
16064;DHT22;8136;53.172;8.256;2023-04-24T00:21:00;12.70;99.90
16064;DHT22;8136;53.172;8.256;2023-04-24T00:23:26;12.60;99.90
16064;DHT22;8136;53.172;8.256;2023-04-24T00:25:53;12.70;99.90
16064;DHT22;8136;53.172;8.256;2023-04-24T00:28:20;12.70;99.90
16064;DHT22;8136;53.172;8.256;2023-04-24T00:30:47;12.60;99.90
16064;DHT22;8136;53.172;8.256;2023-04-24T00:33:15;12.60;99.90
16064;DHT22;8136;53.172;8.256;2023-04-24T00:35:42;12.60;99.90
16064;DHT22;8136;53.172;8.256;2023-04-24T00:38:08;12.60;99.90
16064;DHT22;8136;53.172;8.256;2023-04-24T00:40:35;12.40;99.90
16064;DHT22;8136;53.172;8.256;2023-04-24T00:43:02;12.30;99.90
16064;DHT22;8136;53.172;8.256;2023-04-24T00:45:30;12.20;99.90
16064;DHT22;8136;53.172;8.256;2023-04-24T00:47:57;12.10;99.90
16064;DHT22;8136;53.172;8.256;2023-04-24T00:50:25;12.00;99.90
16064;DHT22;8136;53.172;8.256;2023-04-24T00:52:53;12.00;99.90
16064;DHT22;8136;53.172;8.256;2023-04-24T00:55:23;12.00;99.90
16064;DHT22;8136;53.172;8.256;2023-04-24T00:57:50;12.00;99.90
16064;DHT22;8136;53.172;8.256;2023-04-24T01:00:17;11.80;99.90
16064;DHT22;8136;53.172;8.256;2023-04-24T01:02:45;11.80;99.90
16064;DHT22;8136;53.172;8.256;2023-04-24T01:05:13;11.80;99.90
16064;DHT22;8136;53.172;8.256;2023-04-24T01:07:44;11.80;99.90
16064;DHT22;8136;53.172;8.256;2023-04-24T01:10:14;11.70;99.90
16064;DHT22;8136;53.172;8.256;2023-04-24T01:12:41;11.80;99.90
16064;DHT22;8136;53.172;8.256;2023-04-24T01:15:09;11.70;99.90
16064;DHT22;8136;53.172;8.256;2023-04-24T01:17:36;11.80;99.90
16064;DHT22;8136;53.172;8.256;2023-04-24T01:20:04;11.70;99.90
16064;DHT22;8136;53.172;8.256;2023-04-24T01:22:33;11.50;99.90
16064;DHT22;8136;53.172;8.256;2023-04-24T01:25:01;11.50;99.90
16064;DHT22;8136;53.172;8.256;2023-04-24T01:27:28;11.60;99.90
16064;DHT22;8136;53.172;8.256;2023-04-24T01:29:55;11.60;99.90
16064;DHT22;8136;53.172;8.256;2023-04-24T01:32:22;11.70;99.90
16064;DHT22;8136;53.172;8.256;2023-04-24T01:34:57;11.60;99.90
16064;DHT22;8136;53.172;8.256;2023-04-24T01:37:49;11.50;99.90
16064;DHT22;8136;53.172;8.256;2023-04-24T01:40:30;11.60;99.90
16064;DHT22;8136;53.172;8.256;2023-04-24T01:45:49;11.60;99.90
16064;DHT22;8136;53.172;8.256;2023-04-24T10:53:35;10.90;99.90
16064;DHT22;8136;53.172;8.256;2023-04-24T10:56:04;10.90;99.90
16064;DHT22;8136;53.172;8.256;2023-04-24T10:58:39;10.90;99.90
16064;DHT22;8136;53.172;8.256;2023-04-24T11:01:06;10.90;99.90
16064;DHT22;8136;53.172;8.256;2023-04-24T11:03:34;11.00;99.90
16064;DHT22;8136;53.172;8.256;2023-04-24T11:08:31;10.90;99.90
16064;DHT22;8136;53.172;8.256;2023-04-24T11:11:02;10.90;99.90
16064;DHT22;8136;53.172;8.256;2023-04-24T11:14:06;10.90;99.90
16064;DHT22;8136;53.172;8.256;2023-04-24T11:16:35;10.80;99.90
16064;DHT22;8136;53.172;8.256;2023-04-24T11:19:05;10.80;99.90
16064;DHT22;8136;53.172;8.256;2023-04-24T11:21:36;10.70;99.90
16064;DHT22;8136;53.172;8.256;2023-04-24T11:24:26;10.60;99.90
16064;DHT22;8136;53.172;8.256;2023-04-24T11:26:56;10.60;99.90
16064;DHT22;8136;53.172;8.256;2023-04-24T11:29:38;10.50;99.90
16064;DHT22;8136;53.172;8.256;2023-04-24T11:32:15;10.50;99.90
16064;DHT22;8136;53.172;8.256;2023-04-24T11:34:46;10.50;99.90
16064;DHT22;8136;53.172;8.256;2023-04-24T11:37:13;10.50;99.90
16064;DHT22;8136;53.172;8.256;2023-04-24T11:39:40;10.50;99.90
16064;DHT22;8136;53.172;8.256;2023-04-24T11:42:09;10.40;99.90
16064;DHT22;8136;53.172;8.256;2023-04-24T11:44:36;10.40;99.90
16064;DHT22;8136;53.172;8.256;2023-04-24T11:47:04;10.40;99.90
16064;DHT22;8136;53.172;8.256;2023-04-24T11:49:30;10.40;99.90
16064;DHT22;8136;53.172;8.256;2023-04-24T11:51:57;10.40;99.90
16064;DHT22;8136;53.172;8.256;2023-04-24T11:54:25;10.40;99.90
16064;DHT22;8136;53.172;8.256;2023-04-24T11:56:52;10.50;99.90
16064;DHT22;8136;53.172;8.256;2023-04-24T11:59:20;10.50;99.90
16064;DHT22;8136;53.172;8.256;2023-04-24T12:01:48;10.60;99.90
16064;DHT22;8136;53.172;8.256;2023-04-24T12:04:16;10.60;99.90
16064;DHT22;8136;53.172;8.256;2023-04-24T12:06:58;10.60;99.90
16064;DHT22;8136;53.172;8.256;2023-04-24T12:09:25;10.70;99.90
16064;DHT22;8136;53.172;8.256;2023-04-24T12:11:53;10.70;99.90
16064;DHT22;8136;53.172;8.256;2023-04-24T12:14:21;10.70;99.90
16064;DHT22;8136;53.172;8.256;2023-04-24T12:16:49;10.60;99.90
16064;DHT22;8136;53.172;8.256;2023-04-24T12:19:18;10.60;99.90
16064;DHT22;8136;53.172;8.256;2023-04-24T12:21:59;10.50;99.90
16064;DHT22;8136;53.172;8.256;2023-04-24T12:24:26;10.30;99.90
16064;DHT22;8136;53.172;8.256;2023-04-24T12:26:52;10.20;99.90
16064;DHT22;8136;53.172;8.256;2023-04-24T12:29:21;10.10;99.90
16064;DHT22;8136;53.172;8.256;2023-04-24T12:31:49;10.00;99.90
16064;DHT22;8136;53.172;8.256;2023-04-24T12:34:19;9.90;99.90
16064;DHT22;8136;53.172;8.256;2023-04-24T12:36:47;9.90;99.90
16064;DHT22;8136;53.172;8.256;2023-04-24T12:39:16;9.90;99.90
16064;DHT22;8136;53.172;8.256;2023-04-24T12:41:54;9.80;99.90
16064;DHT22;8136;53.172;8.256;2023-04-24T12:44:30;9.80;99.90
16064;DHT22;8136;53.172;8.256;2023-04-24T12:46:58;9.80;99.90
16064;DHT22;8136;53.172;8.256;2023-04-24T12:49:24;9.80;99.90
16064;DHT22;8136;53.172;8.256;2023-04-24T12:51:51;9.80;99.90
16064;DHT22;8136;53.172;8.256;2023-04-24T12:54:18;9.80;99.90
16064;DHT22;8136;53.172;8.256;2023-04-24T12:56:45;9.70;99.90
16064;DHT22;8136;53.172;8.256;2023-04-24T12:59:11;9.70;99.90
16064;DHT22;8136;53.172;8.256;2023-04-24T13:01:40;9.70;99.90
16064;DHT22;8136;53.172;8.256;2023-04-24T13:04:07;9.70;99.90
16064;DHT22;8136;53.172;8.256;2023-04-24T13:06:34;9.60;99.90
16064;DHT22;8136;53.172;8.256;2023-04-24T13:09:01;9.70;99.90
16064;DHT22;8136;53.172;8.256;2023-04-24T13:11:28;9.60;99.90
16064;DHT22;8136;53.172;8.256;2023-04-24T13:13:55;9.60;99.90
16064;DHT22;8136;53.172;8.256;2023-04-24T13:16:22;9.70;99.90
16064;DHT22;8136;53.172;8.256;2023-04-24T13:18:50;9.70;99.90
16064;DHT22;8136;53.172;8.256;2023-04-24T13:21:17;9.70;99.90
16064;DHT22;8136;53.172;8.256;2023-04-24T13:23:44;9.70;99.90
16064;DHT22;8136;53.172;8.256;2023-04-24T13:26:10;9.80;99.90
16064;DHT22;8136;53.172;8.256;2023-04-24T13:28:37;9.80;99.90
16064;DHT22;8136;53.172;8.256;2023-04-24T13:31:04;9.80;99.90
16064;DHT22;8136;53.172;8.256;2023-04-24T13:33:31;9.80;99.90
16064;DHT22;8136;53.172;8.256;2023-04-24T13:35:59;9.70;99.90
16064;DHT22;8136;53.172;8.256;2023-04-24T13:38:26;9.70;99.90
16064;DHT22;8136;53.172;8.256;2023-04-24T13:40:53;9.70;99.90
16064;DHT22;8136;53.172;8.256;2023-04-24T13:43:20;9.70;99.90
16064;DHT22;8136;53.172;8.256;2023-04-24T13:45:47;9.60;99.90
16064;DHT22;8136;53.172;8.256;2023-04-24T13:48:13;9.60;99.90
16064;DHT22;8136;53.172;8.256;2023-04-24T13:50:41;9.60;99.90
16064;DHT22;8136;53.172;8.256;2023-04-24T13:53:09;9.60;99.90
16064;DHT22;8136;53.172;8.256;2023-04-24T13:55:36;9.60;99.90
16064;DHT22;8136;53.172;8.256;2023-04-24T13:58:04;9.60;99.90
16064;DHT22;8136;53.172;8.256;2023-04-24T14:00:32;9.70;99.90
16064;DHT22;8136;53.172;8.256;2023-04-24T14:02:58;9.70;99.90
16064;DHT22;8136;53.172;8.256;2023-04-24T14:05:27;9.70;99.90
16064;DHT22;8136;53.172;8.256;2023-04-24T14:07:53;9.70;99.90
16064;DHT22;8136;53.172;8.256;2023-04-24T14:10:22;9.70;99.90
16064;DHT22;8136;53.172;8.256;2023-04-24T14:12:48;9.70;99.90
16064;DHT22;8136;53.172;8.256;2023-04-24T14:15:15;9.70;99.90
16064;DHT22;8136;53.172;8.256;2023-04-24T14:17:42;9.80;99.90
16064;DHT22;8136;53.172;8.256;2023-04-24T14:20:09;9.70;99.90
16064;DHT22;8136;53.172;8.256;2023-04-24T14:22:36;9.70;99.90
16064;DHT22;8136;53.172;8.256;2023-04-24T14:25:04;9.80;99.90
16064;DHT22;8136;53.172;8.256;2023-04-24T14:27:33;9.80;99.90
16064;DHT22;8136;53.172;8.256;2023-04-24T14:30:00;9.80;99.90
16064;DHT22;8136;53.172;8.256;2023-04-24T14:32:27;9.80;99.90
16064;DHT22;8136;53.172;8.256;2023-04-24T14:34:53;9.70;99.90
16064;DHT22;8136;53.172;8.256;2023-04-24T14:37:20;9.70;99.90
16064;DHT22;8136;53.172;8.256;2023-04-24T14:39:47;9.60;99.90
16064;DHT22;8136;53.172;8.256;2023-04-24T14:42:14;9.60;99.90
16064;DHT22;8136;53.172;8.256;2023-04-24T14:44:43;9.60;99.90
16064;DHT22;8136;53.172;8.256;2023-04-24T14:47:10;9.50;99.90
16064;DHT22;8136;53.172;8.256;2023-04-24T14:49:37;9.50;99.90
16064;DHT22;8136;53.172;8.256;2023-04-24T14:52:04;9.40;99.90
16064;DHT22;8136;53.172;8.256;2023-04-24T14:54:31;9.40;99.90
16064;DHT22;8136;53.172;8.256;2023-04-24T14:56:57;9.40;99.90
16064;DHT22;8136;53.172;8.256;2023-04-24T14:59:24;9.40;99.90
16064;DHT22;8136;53.172;8.256;2023-04-24T15:01:52;9.50;99.90
16064;DHT22;8136;53.172;8.256;2023-04-24T15:04:23;9.50;99.90
16064;DHT22;8136;53.172;8.256;2023-04-24T15:06:50;9.50;99.90
16064;DHT22;8136;53.172;8.256;2023-04-24T15:09:19;9.50;99.90
16064;DHT22;8136;53.172;8.256;2023-04-24T15:11:45;9.60;99.90
16064;DHT22;8136;53.172;8.256;2023-04-24T15:14:12;9.50;99.90
16064;DHT22;8136;53.172;8.256;2023-04-24T15:16:39;9.50;99.90
16064;DHT22;8136;53.172;8.256;2023-04-24T15:19:07;9.50;99.90
16064;DHT22;8136;53.172;8.256;2023-04-24T15:21:35;9.40;99.90
16064;DHT22;8136;53.172;8.256;2023-04-24T15:24:03;9.50;99.90
16064;DHT22;8136;53.172;8.256;2023-04-24T15:26:30;9.40;99.90
16064;DHT22;8136;53.172;8.256;2023-04-24T15:28:57;9.40;99.90
16064;DHT22;8136;53.172;8.256;2023-04-24T15:31:24;9.40;99.90
16064;DHT22;8136;53.172;8.256;2023-04-24T15:33:51;9.40;99.90
16064;DHT22;8136;53.172;8.256;2023-04-24T15:36:19;9.30;99.90
16064;DHT22;8136;53.172;8.256;2023-04-24T15:38:47;9.30;99.90
16064;DHT22;8136;53.172;8.256;2023-04-24T15:41:13;9.30;99.90
16064;DHT22;8136;53.172;8.256;2023-04-24T15:43:40;9.40;99.90
16064;DHT22;8136;53.172;8.256;2023-04-24T15:46:08;9.40;99.90
16064;DHT22;8136;53.172;8.256;2023-04-24T15:48:36;9.40;99.90
16064;DHT22;8136;53.172;8.256;2023-04-24T15:51:04;9.50;99.90
16064;DHT22;8136;53.172;8.256;2023-04-24T15:53:32;9.50;99.90
16064;DHT22;8136;53.172;8.256;2023-04-24T15:55:59;9.50;99.90
16064;DHT22;8136;53.172;8.256;2023-04-24T15:58:25;9.50;99.90
16064;DHT22;8136;53.172;8.256;2023-04-24T16:00:53;9.50;99.90
16064;DHT22;8136;53.172;8.256;2023-04-24T16:03:20;9.50;99.90
16064;DHT22;8136;53.172;8.256;2023-04-24T16:05:47;9.50;99.90
16064;DHT22;8136;53.172;8.256;2023-04-24T16:08:13;9.50;99.90
16064;DHT22;8136;53.172;8.256;2023-04-24T16:10:42;9.50;99.90
16064;DHT22;8136;53.172;8.256;2023-04-24T16:13:11;9.40;99.90
16064;DHT22;8136;53.172;8.256;2023-04-24T16:15:38;9.40;99.90
16064;DHT22;8136;53.172;8.256;2023-04-24T16:18:05;9.40;99.90
16064;DHT22;8136;53.172;8.256;2023-04-24T16:20:32;9.30;99.90
16064;DHT22;8136;53.172;8.256;2023-04-24T16:22:59;9.30;99.90
16064;DHT22;8136;53.172;8.256;2023-04-24T16:25:25;9.30;99.90
16064;DHT22;8136;53.172;8.256;2023-04-24T16:27:54;9.30;99.90
16064;DHT22;8136;53.172;8.256;2023-04-24T16:30:21;9.20;99.90
16064;DHT22;8136;53.172;8.256;2023-04-24T16:32:48;9.20;99.90
16064;DHT22;8136;53.172;8.256;2023-04-24T16:35:15;9.30;99.90
16064;DHT22;8136;53.172;8.256;2023-04-24T16:37:42;9.30;99.90
16064;DHT22;8136;53.172;8.256;2023-04-24T16:40:09;9.30;99.90
16064;DHT22;8136;53.172;8.256;2023-04-24T16:42:37;9.40;99.90
16064;DHT22;8136;53.172;8.256;2023-04-24T16:45:06;9.30;99.90
16064;DHT22;8136;53.172;8.256;2023-04-24T16:47:34;9.40;99.90
16064;DHT22;8136;53.172;8.256;2023-04-24T16:50:01;9.40;99.90
16064;DHT22;8136;53.172;8.256;2023-04-24T16:52:28;9.40;99.90
16064;DHT22;8136;53.172;8.256;2023-04-24T16:54:55;9.40;99.90
16064;DHT22;8136;53.172;8.256;2023-04-24T16:57:22;9.40;99.90
16064;DHT22;8136;53.172;8.256;2023-04-24T16:59:48;9.40;99.90
16064;DHT22;8136;53.172;8.256;2023-04-24T17:02:16;9.40;99.90
16064;DHT22;8136;53.172;8.256;2023-04-24T17:04:43;9.40;99.90
16064;DHT22;8136;53.172;8.256;2023-04-24T17:07:10;9.40;99.90
16064;DHT22;8136;53.172;8.256;2023-04-24T17:09:37;9.40;99.90
16064;DHT22;8136;53.172;8.256;2023-04-24T17:12:04;9.40;99.90
16064;DHT22;8136;53.172;8.256;2023-04-24T17:14:31;9.40;99.90
16064;DHT22;8136;53.172;8.256;2023-04-24T17:16:58;9.40;99.90
16064;DHT22;8136;53.172;8.256;2023-04-24T17:19:26;9.40;99.90
16064;DHT22;8136;53.172;8.256;2023-04-24T17:21:53;9.40;99.90
16064;DHT22;8136;53.172;8.256;2023-04-24T17:24:21;9.40;99.90
16064;DHT22;8136;53.172;8.256;2023-04-24T17:26:47;9.40;99.90
16064;DHT22;8136;53.172;8.256;2023-04-24T17:29:14;9.50;99.90
16064;DHT22;8136;53.172;8.256;2023-04-24T17:31:41;9.40;99.90
16064;DHT22;8136;53.172;8.256;2023-04-24T17:34:08;9.40;99.90
16064;DHT22;8136;53.172;8.256;2023-04-24T17:36:36;9.50;99.90
16064;DHT22;8136;53.172;8.256;2023-04-24T17:39:03;9.50;99.90
16064;DHT22;8136;53.172;8.256;2023-04-24T17:41:30;9.40;99.90
16064;DHT22;8136;53.172;8.256;2023-04-24T17:43:57;9.40;99.90
16064;DHT22;8136;53.172;8.256;2023-04-24T17:46:24;9.30;99.90
16064;DHT22;8136;53.172;8.256;2023-04-24T17:48:50;9.30;99.90
16064;DHT22;8136;53.172;8.256;2023-04-24T17:51:17;9.30;99.90
16064;DHT22;8136;53.172;8.256;2023-04-24T17:53:45;9.30;99.90
16064;DHT22;8136;53.172;8.256;2023-04-24T17:56:13;9.30;99.90
16064;DHT22;8136;53.172;8.256;2023-04-24T17:58:40;9.30;99.90
16064;DHT22;8136;53.172;8.256;2023-04-24T18:01:06;9.30;99.90
16064;DHT22;8136;53.172;8.256;2023-04-24T18:03:33;9.20;99.90
16064;DHT22;8136;53.172;8.256;2023-04-24T18:06:00;9.20;99.90
16064;DHT22;8136;53.172;8.256;2023-04-24T18:08:27;9.20;99.90
16064;DHT22;8136;53.172;8.256;2023-04-24T18:10:56;9.20;99.90
16064;DHT22;8136;53.172;8.256;2023-04-24T18:13:23;9.10;99.90
16064;DHT22;8136;53.172;8.256;2023-04-24T18:15:50;9.00;99.90
16064;DHT22;8136;53.172;8.256;2023-04-24T18:18:16;9.00;99.90
16064;DHT22;8136;53.172;8.256;2023-04-24T18:20:43;9.00;99.90
16064;DHT22;8136;53.172;8.256;2023-04-24T18:23:10;9.00;99.90
16064;DHT22;8136;53.172;8.256;2023-04-24T18:25:37;9.00;99.90
16064;DHT22;8136;53.172;8.256;2023-04-24T18:28:06;9.00;99.90
16064;DHT22;8136;53.172;8.256;2023-04-24T18:30:32;8.90;99.90
16064;DHT22;8136;53.172;8.256;2023-04-24T18:32:59;8.90;99.90
16064;DHT22;8136;53.172;8.256;2023-04-24T18:35:26;8.90;99.90
16064;DHT22;8136;53.172;8.256;2023-04-24T18:37:53;8.90;99.90
16064;DHT22;8136;53.172;8.256;2023-04-24T18:40:20;8.90;99.90
16064;DHT22;8136;53.172;8.256;2023-04-24T18:42:47;8.90;99.90
16064;DHT22;8136;53.172;8.256;2023-04-24T18:45:15;8.90;99.90
16064;DHT22;8136;53.172;8.256;2023-04-24T18:47:42;8.90;99.90
16064;DHT22;8136;53.172;8.256;2023-04-24T18:50:09;8.90;99.90
16064;DHT22;8136;53.172;8.256;2023-04-24T18:52:36;8.90;99.90
16064;DHT22;8136;53.172;8.256;2023-04-24T18:55:04;8.90;99.90
16064;DHT22;8136;53.172;8.256;2023-04-24T18:57:31;8.90;99.90
16064;DHT22;8136;53.172;8.256;2023-04-24T18:59:58;8.90;99.90
16064;DHT22;8136;53.172;8.256;2023-04-24T19:02:26;8.90;99.90
16064;DHT22;8136;53.172;8.256;2023-04-24T19:04:53;8.90;99.90
16064;DHT22;8136;53.172;8.256;2023-04-24T19:07:20;8.90;99.90
16064;DHT22;8136;53.172;8.256;2023-04-24T19:09:46;8.90;99.90
16064;DHT22;8136;53.172;8.256;2023-04-24T19:12:13;8.80;99.90
16064;DHT22;8136;53.172;8.256;2023-04-24T19:14:40;8.90;99.90
16064;DHT22;8136;53.172;8.256;2023-04-24T19:17:07;8.90;99.90
16064;DHT22;8136;53.172;8.256;2023-04-24T19:19:35;8.80;99.90
16064;DHT22;8136;53.172;8.256;2023-04-24T19:22:02;8.80;99.90
16064;DHT22;8136;53.172;8.256;2023-04-24T19:24:29;8.80;99.90
16064;DHT22;8136;53.172;8.256;2023-04-24T19:26:57;8.80;99.90
16064;DHT22;8136;53.172;8.256;2023-04-24T19:29:24;8.80;99.90
16064;DHT22;8136;53.172;8.256;2023-04-24T19:31:51;8.90;99.90
16064;DHT22;8136;53.172;8.256;2023-04-24T19:34:18;8.90;99.90
16064;DHT22;8136;53.172;8.256;2023-04-24T19:36:47;8.90;99.90
16064;DHT22;8136;53.172;8.256;2023-04-24T19:39:14;8.90;99.90
16064;DHT22;8136;53.172;8.256;2023-04-24T19:41:41;8.90;99.90
16064;DHT22;8136;53.172;8.256;2023-04-24T19:44:07;8.90;99.90
16064;DHT22;8136;53.172;8.256;2023-04-24T19:46:34;8.90;99.90
16064;DHT22;8136;53.172;8.256;2023-04-24T19:49:01;8.90;99.90
16064;DHT22;8136;53.172;8.256;2023-04-24T19:51:28;8.90;99.90
16064;DHT22;8136;53.172;8.256;2023-04-24T19:53:58;8.80;99.90
16064;DHT22;8136;53.172;8.256;2023-04-24T19:56:25;8.80;99.90
16064;DHT22;8136;53.172;8.256;2023-04-24T19:58:51;8.80;99.90
16064;DHT22;8136;53.172;8.256;2023-04-24T20:01:18;8.80;99.90
16064;DHT22;8136;53.172;8.256;2023-04-24T20:03:45;8.80;99.90
16064;DHT22;8136;53.172;8.256;2023-04-24T20:06:12;8.80;99.90
16064;DHT22;8136;53.172;8.256;2023-04-24T20:08:38;8.80;99.90
16064;DHT22;8136;53.172;8.256;2023-04-24T20:11:08;8.80;99.90
16064;DHT22;8136;53.172;8.256;2023-04-24T20:13:35;8.70;99.90
16064;DHT22;8136;53.172;8.256;2023-04-24T20:16:02;8.70;99.90
16064;DHT22;8136;53.172;8.256;2023-04-24T20:18:28;8.70;99.90
16064;DHT22;8136;53.172;8.256;2023-04-24T20:20:55;8.70;99.90
16064;DHT22;8136;53.172;8.256;2023-04-24T20:23:24;8.70;99.90
16064;DHT22;8136;53.172;8.256;2023-04-24T20:25:51;8.70;99.90
16064;DHT22;8136;53.172;8.256;2023-04-24T20:28:23;8.70;99.90
16064;DHT22;8136;53.172;8.256;2023-04-24T20:30:50;8.70;99.90
16064;DHT22;8136;53.172;8.256;2023-04-24T20:33:17;8.70;99.90
16064;DHT22;8136;53.172;8.256;2023-04-24T20:35:45;8.60;99.90
16064;DHT22;8136;53.172;8.256;2023-04-24T20:38:11;8.60;99.90
16064;DHT22;8136;53.172;8.256;2023-04-24T20:40:38;8.60;99.90
16064;DHT22;8136;53.172;8.256;2023-04-24T20:43:06;8.50;99.90
16064;DHT22;8136;53.172;8.256;2023-04-24T20:45:34;8.50;99.90
16064;DHT22;8136;53.172;8.256;2023-04-24T20:48:01;8.50;99.90
16064;DHT22;8136;53.172;8.256;2023-04-24T20:50:28;8.50;99.90
16064;DHT22;8136;53.172;8.256;2023-04-24T20:52:55;8.50;99.90
16064;DHT22;8136;53.172;8.256;2023-04-24T20:55:21;8.50;99.90
16064;DHT22;8136;53.172;8.256;2023-04-24T20:57:48;8.50;99.90
16064;DHT22;8136;53.172;8.256;2023-04-24T21:00:15;8.50;99.90
16064;DHT22;8136;53.172;8.256;2023-04-24T21:02:43;8.50;99.90
16064;DHT22;8136;53.172;8.256;2023-04-24T21:05:10;8.50;99.90
16064;DHT22;8136;53.172;8.256;2023-04-24T21:07:37;8.50;99.90
16064;DHT22;8136;53.172;8.256;2023-04-24T21:10:04;8.50;99.90
16064;DHT22;8136;53.172;8.256;2023-04-24T21:12:31;8.50;99.90
16064;DHT22;8136;53.172;8.256;2023-04-24T21:14:58;8.40;99.90
16064;DHT22;8136;53.172;8.256;2023-04-24T21:17:25;8.40;99.90
16064;DHT22;8136;53.172;8.256;2023-04-24T21:19:53;8.40;99.90
16064;DHT22;8136;53.172;8.256;2023-04-24T21:22:21;8.40;99.90
16064;DHT22;8136;53.172;8.256;2023-04-24T21:24:48;8.40;99.90
16064;DHT22;8136;53.172;8.256;2023-04-24T21:27:14;8.40;99.90
16064;DHT22;8136;53.172;8.256;2023-04-24T21:29:41;8.40;99.90
16064;DHT22;8136;53.172;8.256;2023-04-24T21:32:08;8.40;99.90
16064;DHT22;8136;53.172;8.256;2023-04-24T21:34:35;8.40;99.90
16064;DHT22;8136;53.172;8.256;2023-04-24T21:37:03;8.40;99.90
16064;DHT22;8136;53.172;8.256;2023-04-24T21:39:30;8.40;99.90
16064;DHT22;8136;53.172;8.256;2023-04-24T21:41:57;8.40;99.90
16064;DHT22;8136;53.172;8.256;2023-04-24T21:44:24;8.40;99.90
16064;DHT22;8136;53.172;8.256;2023-04-24T21:46:51;8.40;99.90
16064;DHT22;8136;53.172;8.256;2023-04-24T21:49:19;8.50;99.90
16064;DHT22;8136;53.172;8.256;2023-04-24T21:51:46;8.40;99.90
16064;DHT22;8136;53.172;8.256;2023-04-24T21:54:14;8.50;99.90
16064;DHT22;8136;53.172;8.256;2023-04-24T21:56:41;8.40;99.90
16064;DHT22;8136;53.172;8.256;2023-04-24T21:59:08;8.40;99.90
16064;DHT22;8136;53.172;8.256;2023-04-24T22:01:35;8.40;99.90
16064;DHT22;8136;53.172;8.256;2023-04-24T22:04:02;8.40;99.90
16064;DHT22;8136;53.172;8.256;2023-04-24T22:06:29;8.40;99.90
16064;DHT22;8136;53.172;8.256;2023-04-24T22:08:56;8.40;99.90
16064;DHT22;8136;53.172;8.256;2023-04-24T22:11:25;8.40;99.90
16064;DHT22;8136;53.172;8.256;2023-04-24T22:13:52;8.30;99.90
16064;DHT22;8136;53.172;8.256;2023-04-24T22:16:20;8.40;99.90
16064;DHT22;8136;53.172;8.256;2023-04-24T22:18:47;8.50;99.90
16064;DHT22;8136;53.172;8.256;2023-04-24T22:21:14;8.50;99.90
16064;DHT22;8136;53.172;8.256;2023-04-24T22:23:41;8.50;99.90
16064;DHT22;8136;53.172;8.256;2023-04-24T22:26:08;8.40;99.90
16064;DHT22;8136;53.172;8.256;2023-04-24T22:28:36;8.40;99.90
16064;DHT22;8136;53.172;8.256;2023-04-24T22:31:03;8.50;99.90
16064;DHT22;8136;53.172;8.256;2023-04-24T22:33:29;8.40;99.90
16064;DHT22;8136;53.172;8.256;2023-04-24T22:35:56;8.40;99.90
16064;DHT22;8136;53.172;8.256;2023-04-24T22:38:23;8.40;99.90
16064;DHT22;8136;53.172;8.256;2023-04-24T22:40:50;8.50;99.90
16064;DHT22;8136;53.172;8.256;2023-04-24T22:43:17;8.60;99.90
16064;DHT22;8136;53.172;8.256;2023-04-24T22:45:46;8.60;99.90
16064;DHT22;8136;53.172;8.256;2023-04-24T22:48:12;8.50;99.90
16064;DHT22;8136;53.172;8.256;2023-04-24T22:50:39;8.50;99.90
16064;DHT22;8136;53.172;8.256;2023-04-24T22:53:06;8.50;99.90
16064;DHT22;8136;53.172;8.256;2023-04-24T22:55:34;8.50;99.90
16064;DHT22;8136;53.172;8.256;2023-04-24T22:58:01;8.40;99.90
16064;DHT22;8136;53.172;8.256;2023-04-24T23:00:28;8.30;99.90
16064;DHT22;8136;53.172;8.256;2023-04-24T23:02:56;8.20;99.90
16064;DHT22;8136;53.172;8.256;2023-04-24T23:05:23;8.10;99.90
16064;DHT22;8136;53.172;8.256;2023-04-24T23:07:49;8.20;99.90
16064;DHT22;8136;53.172;8.256;2023-04-24T23:10:16;8.10;99.90
16064;DHT22;8136;53.172;8.256;2023-04-24T23:12:43;8.10;99.90
16064;DHT22;8136;53.172;8.256;2023-04-24T23:15:10;8.10;99.90
16064;DHT22;8136;53.172;8.256;2023-04-24T23:17:37;8.10;99.90
16064;DHT22;8136;53.172;8.256;2023-04-24T23:20:06;8.10;99.90
16064;DHT22;8136;53.172;8.256;2023-04-24T23:22:33;8.10;99.90
16064;DHT22;8136;53.172;8.256;2023-04-24T23:25:00;8.10;99.90
16064;DHT22;8136;53.172;8.256;2023-04-24T23:27:27;8.10;99.90
16064;DHT22;8136;53.172;8.256;2023-04-24T23:29:53;8.10;99.90
16064;DHT22;8136;53.172;8.256;2023-04-24T23:32:20;8.00;99.90
16064;DHT22;8136;53.172;8.256;2023-04-24T23:34:47;8.10;99.90
16064;DHT22;8136;53.172;8.256;2023-04-24T23:37:16;8.10;99.90
16064;DHT22;8136;53.172;8.256;2023-04-24T23:39:43;8.10;99.90
16064;DHT22;8136;53.172;8.256;2023-04-24T23:42:10;8.10;99.90
16064;DHT22;8136;53.172;8.256;2023-04-24T23:44:37;8.00;99.90
16064;DHT22;8136;53.172;8.256;2023-04-24T23:47:04;8.00;99.90
16064;DHT22;8136;53.172;8.256;2023-04-24T23:49:30;8.00;99.90
16064;DHT22;8136;53.172;8.256;2023-04-24T23:51:57;8.00;99.90
16064;DHT22;8136;53.172;8.256;2023-04-24T23:54:25;8.00;99.90
16064;DHT22;8136;53.172;8.256;2023-04-24T23:56:52;8.00;99.90
16064;DHT22;8136;53.172;8.256;2023-04-24T23:59:19;8.00;99.90
